Date,TemperatureHighF,TemperatureAvgF,TemperatureLowF,DewpointHighF,DewpointAvgF,DewpointLowF,HumidityHigh,HumidityAvg,HumidityLow,PressureMaxIn,PressureMinIn,WindSpeedMaxMPH,WindSpeedAvgMPH,GustSpeedMaxMPH,PrecipitationSumIn
2013-1-1,50,47,41,49,44,32,98,90,68,30.16,29.95,5,0,10,0.99
2013-1-2,48,44,39,48,40,36,98,89,76,30.16,29.92,9,2,20,0.08
2013-1-3,47,40,35,38,34,27,96,83,59,30.31,30.11,9,2,10,0.02
2013-1-4,44,38,31,26,22,17,69,52,33,30.14,30.05,0,0,0,0.00
2013-1-5,45,36,28,35,25,18,89,65,48,30.17,30.02,0,0,0,0.01
2013-1-6,48,40,37,39,35,30,93,81,64,30.03,29.87,0,0,0,0.00
2013-1-7,50,40,32,34,29,24,78,67,47,30.16,29.99,0,0,0,0.00
2013-1-8,49,42,33,40,34,27,81,74,66,30.21,30.10,0,0,0,0.00
2013-1-9,61,53,46,54,49,40,97,87,73,30.20,30.12,0,0,0,0.00
2013-1-10,63,57,52,54,52,50,96,82,71,30.19,30.01,0,0,0,0.01
2013-1-11,62,59,55,61,59,54,99,99,96,30.01,29.87,0,0,0,0.86
2013-1-12,69,62,59,65,61,57,100,95,81,29.92,29.82,0,0,0,0.02
2013-1-13,66,61,58,61,59,56,98,93,83,29.88,29.78,0,0,0,0.09
2013-1-14,62,60,57,62,60,57,99,99,97,29.86,29.77,0,0,0,1.42
2013-1-15,61,57,54,60,56,54,99,99,98,29.85,29.70,0,0,0,2.09
2013-1-16,61,55,52,61,55,52,100,99,98,29.76,29.67,0,0,0,0.99
2013-1-17,54,48,36,53,47,31,99,97,83,29.99,29.40,12,2,20,1.56
2013-1-18,52,39,30,31,27,22,91,66,32,30.27,30.00,3,1,6,0.01
2013-1-19,51,37,26,32,27,23,95,69,41,30.24,30.00,4,0,9,0.00
2013-1-20,58,47,33,38,30,23,77,52,37,30.00,29.84,10,3,17,0.00
2013-1-21,52,43,33,31,25,14,71,49,37,29.90,29.81,14,5,22,0.00
2013-1-22,39,31,25,14,10,7,49,42,34,30.09,29.87,13,6,20,0.00
2013-1-23,47,37,29,34,20,9,71,51,41,30.12,29.90,11,5,16,0.00
2013-1-24,48,42,32,38,21,6,72,47,23,30.17,29.83,19,8,32,0.00
2013-1-25,43,29,24,42,18,5,97,68,39,30.20,29.90,8,4,14,0.08
2013-1-26,54,43,35,43,28,17,97,59,23,30.06,29.90,7,2,11,0.00
2013-1-27,47,40,32,33,29,22,79,66,57,30.27,30.04,7,2,12,0.00
2013-1-28,49,43,39,46,38,29,96,82,66,30.20,30.06,4,0,4,0.01
2013-1-29,62,54,42,60,52,41,99,96,90,30.06,29.74,2,0,4,0.16
2013-1-30,63,56,41,62,55,36,99,97,84,29.73,29.29,17,4,19,2.28
2013-1-31,43,37,31,36,25,21,84,62,43,29.90,29.48,17,8,24,0.00
2013-2-1,39,31,22,29,14,5,72,49,29,30.16,29.82,14,6,23,0.00
2013-2-2,40,29,19,32,19,4,97,71,26,30.15,29.87,6,1,11,0.02
2013-2-3,47,37,28,35,29,25,97,74,50,29.88,29.74,13,6,21,0.27
2013-2-4,47,37,26,29,24,19,80,61,41,29.92,29.79,5,1,10,0.00
2013-2-5,58,46,34,45,37,26,90,70,48,29.79,29.70,12,4,16,0.00
2013-2-6,62,51,41,41,32,26,90,51,28,29.93,29.77,7,2,12,0.00
2013-2-7,49,46,39,44,36,28,93,71,46,29.93,29.71,8,3,11,0.12
2013-2-8,53,45,36,47,40,29,97,82,51,29.92,29.68,9,3,16,0.02
2013-2-9,59,44,26,29,24,19,83,50,22,30.06,29.88,5,1,5,0.00
2013-2-10,52,46,40,45,34,24,97,65,39,30.12,29.88,6,2,11,0.93
2013-2-11,55,50,46,54,47,39,99,91,72,29.89,29.77,7,2,9,0.44
2013-2-12,55,47,40,45,34,25,94,65,33,29.87,29.63,7,2,11,0.24
2013-2-13,46,41,35,44,38,29,97,88,75,29.71,29.50,12,4,21,0.03
2013-2-14,54,42,31,37,31,27,86,65,43,29.84,29.70,10,2,15,0.00
2013-2-15,59,43,29,38,32,26,93,68,38,29.89,29.75,14,4,18,0.00
2013-2-16,40,33,25,27,20,11,75,58,40,29.89,29.68,16,7,23,0.00
2013-2-17,39,30,22,14,10,5,60,45,30,30.07,29.89,15,5,22,0.00
2013-2-18,54,38,23,29,22,13,74,52,35,30.15,29.93,12,2,15,0.00
2013-2-19,51,41,32,43,28,14,100,66,35,29.93,29.73,15,4,26,0.23
2013-2-20,51,39,29,16,8,1,47,30,13,29.92,29.83,17,5,21,0.00
2013-2-21,59,44,28,37,20,7,84,42,22,29.98,29.77,6,2,10,0.28
2013-2-22,41,39,36,39,37,34,97,94,84,29.96,29.83,9,4,14,0.99
2013-2-23,49,44,40,48,43,39,98,97,95,29.85,29.61,5,1,7,0.54
2013-2-24,61,49,37,43,31,20,97,55,29,29.78,29.65,12,4,15,0.00
2013-2-25,49,42,35,35,28,20,93,57,45,29.84,29.67,10,4,17,0.01
2013-2-26,41,38,35,40,37,34,97,94,81,29.67,29.36,11,5,16,1.31
2013-2-27,53,43,36,38,34,31,86,70,49,29.63,29.51,14,8,19,0.00
2013-2-28,42,36,33,33,26,23,77,67,62,29.75,29.57,12,7,18,0.00
2013-3-1,38,35,32,29,26,24,78,72,66,29.75,29.69,12,6,18,0.00
2013-3-2,38,34,29,28,25,18,79,71,62,29.78,29.67,12,7,19,0.00
2013-3-3,35,30,25,21,17,15,68,59,49,29.83,29.74,14,7,22,0.00
2013-3-4,57,42,26,30,22,13,62,47,31,29.93,29.79,11,4,17,0.00
2013-3-5,54,44,35,51,38,26,97,80,58,29.84,29.43,18,3,26,0.36
2013-3-6,35,32,28,27,24,17,80,73,59,29.95,29.60,22,10,29,0.00
2013-3-7,57,40,24,34,27,22,90,64,37,30.01,29.91,9,2,13,0.00
2013-3-8,62,45,27,31,23,18,78,47,18,30.09,29.95,9,2,10,0.00
2013-3-9,60,48,34,34,28,21,65,46,32,30.10,29.98,5,1,7,0.00
2013-3-10,65,54,44,38,34,30,61,48,32,30.01,29.86,6,2,12,0.00
2013-3-11,57,53,50,53,49,39,98,86,61,29.87,29.56,10,2,13,1.16
2013-3-12,58,48,36,52,36,27,98,67,32,29.84,29.54,14,5,17,0.03
2013-3-13,48,42,32,30,24,18,64,50,37,30.00,29.82,15,8,21,0.00
2013-3-14,52,38,24,26,16,11,67,45,21,30.12,29.98,13,6,17,0.00
2013-3-15,69,53,34,43,36,24,82,54,37,29.99,29.72,17,6,28,0.00
2013-3-16,72,62,52,48,43,40,65,51,37,29.72,29.59,17,7,25,0.00
2013-3-17,69,61,51,53,47,41,77,59,48,29.72,29.64,12,6,15,0.00
2013-3-18,56,47,43,50,44,42,98,91,71,29.78,29.59,8,2,11,0.43
2013-3-19,58,49,42,48,32,15,98,56,29,29.85,29.66,18,6,19,0.01
2013-3-20,56,45,38,28,18,12,68,34,20,29.90,29.64,16,5,20,0.00
2013-3-21,41,34,26,27,13,6,66,43,29,29.75,29.63,14,8,22,0.00
2013-3-22,50,39,29,31,22,12,65,50,39,29.83,29.74,8,2,12,0.00
2013-3-23,53,45,39,49,42,31,97,88,62,29.80,29.59,5,1,10,0.33
2013-3-24,49,45,40,46,44,32,97,94,75,29.61,29.29,14,4,17,1.32
2013-3-25,39,34,30,32,25,21,76,69,61,29.80,29.41,15,10,25,0.00
2013-3-26,38,33,29,26,24,21,78,68,58,30.03,29.76,12,7,20,0.00
2013-3-27,50,39,30,27,22,19,72,53,34,30.09,29.99,14,7,21,0.00
2013-3-28,57,44,32,30,23,15,63,45,25,30.08,29.98,15,5,20,0.00
2013-3-29,61,46,31,36,29,22,76,53,33,30.12,29.96,7,1,14,0.00
2013-3-30,67,53,43,52,41,35,97,65,37,29.97,29.77,13,2,21,0.28
2013-3-31,63,56,52,57,54,52,98,91,73,29.78,29.61,11,4,24,0.73
2013-4-1,66,57,46,54,45,37,98,67,39,29.77,29.59,12,4,19,0.01
2013-4-2,62,52,42,38,28,18,66,42,24,29.91,29.76,12,5,14,0.00
2013-4-3,58,51,43,39,30,23,77,46,35,29.97,29.83,6,1,9,0.00
2013-4-4,45,41,36,40,36,32,97,85,64,29.95,29.74,10,4,14,0.30
2013-4-5,64,50,39,46,39,32,97,70,30,29.83,29.69,12,4,16,0.01
2013-4-6,68,55,38,41,35,31,77,49,31,29.95,29.83,8,2,15,0.00
2013-4-7,71,58,40,50,42,34,80,57,41,29.98,29.84,10,2,15,0.00
2013-4-8,75,63,52,56,50,45,82,63,46,29.90,29.80,12,3,17,0.00
2013-4-9,79,66,52,60,54,48,93,67,47,29.94,29.83,11,2,14,0.00
2013-4-10,82,67,54,60,55,51,90,67,42,29.87,29.67,11,2,15,0.00
2013-4-11,76,66,57,65,58,53,97,76,58,29.70,29.42,14,3,22,1.48
2013-4-12,68,61,54,62,50,36,98,71,32,29.67,29.37,17,6,20,0.38
2013-4-13,72,62,50,39,36,31,60,41,25,29.78,29.64,13,6,19,0.00
2013-4-14,63,56,47,53,42,33,96,63,41,29.83,29.70,8,2,11,0.20
2013-4-15,72,60,52,60,56,51,98,86,63,29.91,29.70,6,1,10,0.05
2013-4-16,76,65,59,66,60,56,98,84,63,30.02,29.90,6,1,9,0.00
2013-4-17,83,69,60,67,62,58,95,80,55,29.98,29.81,11,3,15,0.04
2013-4-18,78,67,59,64,60,58,98,82,57,29.85,29.66,11,3,17,0.00
2013-4-19,66,58,44,64,54,35,98,87,69,29.75,29.49,13,6,18,0.54
2013-4-20,61,50,38,35,30,26,72,49,29,30.00,29.75,14,7,21,0.01
2013-4-21,65,54,43,40,34,30,63,49,35,30.12,30.00,8,3,15,0.00
2013-4-22,67,55,44,47,40,37,74,57,36,30.10,29.91,9,3,13,0.00
2013-4-23,70,57,44,50,40,30,77,56,41,30.00,29.84,7,2,13,0.00
2013-4-24,70,59,49,60,54,45,97,83,63,29.88,29.81,14,3,19,0.09
2013-4-25,69,55,38,52,33,14,93,54,12,30.04,29.84,11,4,17,0.01
2013-4-26,70,58,42,48,36,25,78,45,32,30.14,30.01,7,2,15,0.01
2013-4-27,58,53,51,52,50,48,98,91,77,30.11,29.95,5,2,10,0.80
2013-4-28,54,52,50,54,52,49,99,98,97,29.99,29.79,7,2,9,2.61
2013-4-29,74,60,52,62,54,49,99,82,49,29.82,29.66,10,3,15,0.00
2013-4-30,77,62,47,62,54,45,98,75,48,29.86,29.71,7,1,12,0.00
2013-5-1,68,62,57,57,54,52,88,77,63,29.96,29.85,8,4,13,0.00
2013-5-2,63,59,57,57,54,52,93,85,77,29.98,29.90,8,4,15,0.00
2013-5-3,59,56,54,54,53,50,97,92,72,29.91,29.76,9,5,16,0.09
2013-5-4,56,51,47,52,48,44,97,92,73,29.76,29.63,9,6,20,1.30
2013-5-5,55,51,47,54,50,45,97,97,93,29.64,29.53,10,4,16,1.68
2013-5-6,51,47,43,50,46,43,98,96,92,29.68,29.55,6,1,9,0.07
2013-5-7,68,56,48,57,50,47,98,81,50,29.72,29.63,12,3,14,0.06
2013-5-8,74,61,48,58,53,46,96,76,50,29.81,29.68,11,3,15,0.00
2013-5-9,78,65,51,62,56,49,97,74,45,29.87,29.76,9,2,12,0.00
2013-5-10,75,64,52,64,58,51,97,83,62,29.85,29.71,14,2,18,0.12
2013-5-11,73,64,58,65,60,56,98,90,68,29.73,29.61,10,4,15,0.22
2013-5-12,65,58,49,56,43,33,88,59,33,29.86,29.66,12,6,18,0.00
2013-5-13,65,54,39,38,33,29,79,47,29,29.97,29.84,11,4,18,0.00
2013-5-14,76,58,37,57,46,34,93,66,43,30.02,29.85,11,3,17,0.00
2013-5-15,86,72,54,60,54,50,89,57,31,29.88,29.73,12,4,15,0.00
2013-5-16,79,70,62,63,58,52,91,67,52,29.82,29.71,10,2,13,0.00
2013-5-17,78,66,56,66,60,54,97,81,56,29.86,29.76,6,1,10,0.00
2013-5-18,69,64,62,66,63,61,99,96,89,29.85,29.78,5,1,7,0.40
2013-5-19,67,65,61,66,64,60,99,99,96,29.86,29.74,6,1,9,1.68
2013-5-20,82,68,55,74,65,55,100,92,73,29.85,29.75,9,2,12,0.53
2013-5-21,84,73,63,75,68,61,100,88,63,29.79,29.65,13,2,16,2.06
2013-5-22,81,70,61,75,66,60,99,90,72,29.74,29.60,10,2,14,0.02
2013-5-23,80,70,63,66,61,53,99,75,47,29.70,29.63,12,4,18,0.00
2013-5-24,71,63,51,54,48,40,79,59,39,29.97,29.70,11,5,18,0.00
2013-5-25,77,62,47,54,43,35,73,50,29,30.06,29.92,11,3,13,0.00
2013-5-26,79,64,48,58,49,39,83,59,42,30.02,29.90,9,2,12,0.00
2013-5-27,81,67,52,64,56,48,88,69,47,29.99,29.86,8,1,11,0.00
2013-5-28,82,70,60,66,61,58,94,75,52,29.95,29.87,7,1,11,0.00
2013-5-29,79,68,58,68,62,56,97,81,58,29.98,29.89,5,1,9,0.00
2013-5-30,79,69,62,66,63,59,95,81,59,30.01,29.88,4,0,9,0.00
2013-5-31,81,71,65,68,64,61,94,80,64,29.97,29.83,6,1,7,0.00
2013-6-1,80,70,63,70,66,62,97,87,69,29.86,29.75,7,1,10,0.02
2013-6-2,76,69,66,73,68,65,99,97,87,29.76,29.62,5,0,10,0.43
2013-6-3,82,71,62,72,65,61,100,84,54,29.70,29.61,7,1,10,0.00
2013-6-4,86,73,58,69,62,56,98,73,46,29.76,29.68,8,1,11,0.00
2013-6-5,80,71,63,71,66,62,98,85,70,29.80,29.64,7,1,10,1.23
2013-6-6,78,69,63,72,67,62,99,94,79,29.70,29.51,4,1,6,0.02
2013-6-7,82,70,64,73,67,62,98,89,61,29.58,29.42,12,2,18,0.35
2013-6-8,83,70,58,72,65,57,99,84,60,29.83,29.57,9,2,12,0.01
2013-6-9,83,71,65,74,68,64,98,90,69,29.85,29.75,9,1,13,0.78
2013-6-10,80,71,65,72,68,64,99,92,68,29.77,29.66,16,6,16,0.31
2013-6-11,85,76,69,76,70,67,99,83,59,29.76,29.68,13,3,15,0.27
2013-6-12,91,80,68,78,72,65,93,77,59,29.79,29.68,8,2,11,0.00
2013-6-13,88,77,67,76,70,64,97,79,60,29.70,29.46,17,4,23,0.53
2013-6-14,84,73,59,66,61,56,97,70,39,29.76,29.54,10,2,17,0.00
2013-6-15,86,72,57,67,61,55,92,71,47,29.88,29.77,6,1,10,0.00
2013-6-16,87,73,58,72,65,56,97,78,53,29.91,29.76,7,2,9,0.67
2013-6-17,84,72,67,76,69,66,99,92,73,29.81,29.68,7,2,10,0.27
2013-6-18,80,72,68,73,69,66,99,93,75,29.69,29.57,11,3,17,0.12
2013-6-19,84,72,65,73,67,64,98,86,67,29.84,29.63,4,1,5,0.00
2013-6-20,82,72,62,72,67,62,98,86,67,29.94,29.83,5,1,10,0.00
2013-6-21,85,71,64,71,65,61,94,81,53,30.00,29.90,7,1,10,0.00
2013-6-22,85,72,60,68,63,59,98,76,51,29.98,29.84,6,1,9,0.00
2013-6-23,86,73,59,74,67,58,99,82,63,29.94,29.84,6,1,10,0.00
2013-6-24,86,76,69,75,70,67,98,84,64,29.96,29.84,10,2,13,0.00
2013-6-25,84,73,65,74,69,64,97,87,68,29.90,29.76,8,1,11,0.39
2013-6-26,87,76,66,76,71,65,99,86,66,29.80,29.66,9,2,16,0.07
2013-6-27,86,77,71,76,72,68,97,85,71,29.71,29.53,14,5,20,0.01
2013-6-28,91,76,67,73,69,65,98,80,47,29.58,29.38,11,3,16,0.37
2013-6-29,85,74,64,74,65,61,98,75,46,29.46,29.40,10,2,12,0.01
2013-6-30,86,73,59,71,64,57,98,77,46,29.55,29.44,9,1,12,0.00
2013-7-1,82,71,66,72,67,64,98,89,66,29.66,29.52,10,1,12,0.20
2013-7-3,69,66,64,68,65,64,99,98,96,29.93,29.83,8,1,10,1.74
2013-7-4,74,68,64,74,67,64,100,99,96,29.94,29.86,13,2,24,0.70
2013-7-5,78,70,67,73,69,67,100,96,80,29.97,29.88,8,1,11,0.83
2013-7-6,79,71,67,76,70,66,100,96,86,29.94,29.82,6,1,11,0.52
2013-7-7,80,73,68,74,70,68,100,94,78,29.92,29.84,6,2,7,0.02
2013-7-8,85,76,68,78,72,68,99,89,72,29.92,29.84,7,1,10,0.10
2013-7-9,88,76,68,78,72,67,99,88,65,29.91,29.79,7,2,12,0.15
2013-7-10,87,74,68,79,72,68,100,92,70,29.84,29.69,10,1,11,0.02
2013-7-11,81,73,68,76,71,67,100,95,84,29.73,29.62,7,1,10,0.07
2013-7-12,86,74,67,77,71,66,100,90,69,29.70,29.62,7,1,12,0.17
2013-7-13,76,70,66,71,67,65,97,92,82,29.83,29.68,6,2,10,0.00
2013-7-14,76,71,68,73,70,68,99,96,88,29.99,29.80,7,2,12,0.32
2013-7-15,82,73,68,75,71,68,99,91,75,30.05,29.94,6,2,10,0.08
2013-7-16,89,78,68,77,71,68,99,83,59,30.06,29.97,5,-9,6,0.00
2013-7-17,93,76,66,78,70,63,99,84,55,30.02,29.86,14,1,14,0.17
2013-7-18,88,76,65,78,71,64,100,85,62,29.97,29.80,4,1,9,0.08
2013-7-19,90,79,68,78,72,68,98,82,60,29.87,29.72,6,1,10,0.02
2013-7-20,88,75,67,80,71,66,99,88,66,29.78,29.69,7,1,9,0.00
2013-7-21,89,75,67,78,71,66,99,89,63,29.77,29.66,9,2,12,0.15
2013-7-22,83,74,68,77,72,68,99,92,76,29.75,29.61,9,3,13,0.00
2013-7-23,82,74,67,75,70,65,97,87,71,29.68,29.57,13,-16,19,0.00
2013-7-24,88,77,69,76,71,68,96,81,62,29.60,29.53,5,2,7,0.00
2013-7-25,89,74,65,75,68,63,97,81,57,29.74,29.57,11,2,15,0.00
2013-7-26,82,74,66,75,70,65,98,88,73,29.83,29.71,20,2,27,1.12
2013-7-27,82,73,66,74,69,65,100,90,73,29.76,29.64,9,2,10,0.01
2013-7-28,84,73,63,74,67,62,99,84,56,29.78,29.67,9,2,13,0.00
2013-7-29,85,71,61,66,61,55,96,73,40,29.91,29.76,6,1,9,0.00
2013-7-30,90,74,57,74,64,52,98,74,51,29.96,29.86,4,1,8,0.00
2013-7-31,79,73,68,73,70,67,98,91,78,29.89,29.70,6,1,9,0.05
2013-8-1,86,75,66,75,69,65,99,84,62,29.74,29.64,9,2,12,0.52
2013-8-2,89,75,64,74,68,62,97,78,51,29.77,29.66,5,1,10,0.00
2013-8-3,85,74,62,73,68,61,99,82,62,29.79,29.74,9,2,13,0.00
2013-8-4,85,76,69,72,68,60,95,76,60,29.77,29.70,13,4,15,0.00
2013-8-5,88,74,63,75,67,60,94,79,61,29.81,29.71,6,1,7,0.00
2013-8-6,86,76,69,75,71,67,98,84,63,29.75,29.68,6,1,7,0.01
2013-8-7,79,73,69,75,72,69,99,95,86,29.80,29.73,5,1,7,1.65
2013-8-8,86,75,70,79,72,70,99,93,76,29.81,29.75,11,1,20,0.23
2013-8-9,87,77,69,80,74,68,100,90,71,29.83,29.75,8,1,9,0.09
2013-8-10,90,76,70,80,73,69,100,91,66,29.87,29.77,14,2,15,0.13
2013-8-11,90,75,66,81,72,66,100,91,69,29.90,29.81,13,2,14,0.25
2013-8-12,90,75,68,78,72,67,100,92,66,29.85,29.72,7,1,12,0.12
2013-8-13,85,76,70,76,72,69,100,88,67,29.74,29.60,7,2,11,0.07
2013-8-14,82,71,67,73,66,-100,97,88,73,29.78,29.62,3,0,9,0.06
2013-8-15,72,65,61,64,60,56,93,82,64,29.86,29.76,8,-15,12,0.00
2013-8-16,68,64,60,61,58,55,91,83,72,29.89,29.81,7,-19,13,0.00
2013-8-17,64,62,61,62,60,57,98,91,80,29.92,29.84,6,2,9,0.39
2013-8-18,71,66,62,68,64,61,98,96,85,29.97,29.88,5,-10,6,0.45
2013-8-19,72,68,64,70,67,64,99,96,90,29.93,29.83,5,1,7,1.71
2013-8-20,78,70,66,72,68,65,98,93,73,29.95,29.85,3,-25,4,0.00
2013-8-21,78,70,67,72,69,66,99,95,76,30.00,29.87,6,1,8,0.61
2013-8-22,81,71,67,75,70,67,99,95,73,29.93,29.80,9,1,10,0.05
2013-8-23,84,74,64,73,67,63,100,83,50,29.84,29.72,4,1,8,0.00
2013-8-24,78,69,63,70,66,62,98,89,71,30.02,29.79,5,1,9,0.00
2013-8-25,76,68,60,66,61,56,96,78,61,30.12,30.01,4,1,9,0.00
2013-8-26,79,67,56,68,62,55,99,85,60,30.08,29.91,4,1,12,0.00
2013-8-27,82,70,58,70,64,58,98,84,53,29.93,29.79,5,-24,9,0.00
2013-8-28,85,75,65,73,67,63,97,79,53,29.81,29.71,6,2,8,0.00
2013-8-29,86,79,70,73,70,66,92,74,60,29.73,29.66,8,3,14,0.00
2013-8-30,84,75,70,76,71,68,97,88,72,29.79,29.68,8,1,11,0.00
2013-8-31,84,74,69,76,71,68,99,93,72,29.72,29.63,11,-24,15,0.08
2013-9-1,83,73,66,76,70,66,99,92,70,29.69,29.59,9,2,11,0.27
2013-9-2,79,72,65,73,69,65,99,92,80,29.72,29.61,11,3,14,0.00
2013-9-3,85,74,67,71,67,62,99,80,49,29.73,29.61,6,1,10,0.00
2013-9-4,83,71,61,71,66,60,98,85,56,29.85,29.71,6,-30,8,0.00
2013-9-5,83,71,62,71,66,61,99,85,52,29.88,29.81,4,0,5,0.00
2013-9-6,80,70,62,68,64,60,98,83,60,29.93,29.82,5,1,12,0.00
2013-9-7,80,69,59,69,64,58,99,86,62,29.90,29.77,5,1,9,0.00
2013-9-8,84,74,64,72,65,60,96,76,46,29.77,29.68,8,1,11,0.00
2013-9-9,83,72,63,71,67,62,98,84,62,29.87,29.75,3,0,12,0.00
2013-9-10,83,71,62,73,67,62,98,87,62,29.98,29.87,5,0,5,0.00
2013-9-11,84,72,62,71,66,61,99,84,54,29.99,29.85,5,1,8,0.00
2013-9-12,83,71,64,72,67,63,98,88,62,29.86,29.65,9,1,13,0.00
2013-9-13,79,72,61,69,61,52,93,71,47,29.65,29.57,8,3,13,0.00
2013-9-14,75,62,50,60,54,48,97,78,52,29.85,29.63,7,1,11,0.00
2013-9-15,78,66,57,66,61,55,96,84,63,29.94,29.85,6,1,10,0.00
2013-9-16,82,71,61,69,60,47,98,73,32,29.90,29.81,5,2,9,0.00
2013-9-17,72,67,62,62,58,55,84,75,60,30.02,29.86,7,3,9,0.00
2013-9-18,70,64,58,61,57,54,97,79,65,30.01,29.91,4,1,9,0.00
2013-9-19,80,66,54,67,61,53,99,85,60,29.95,29.83,5,1,11,0.00
2013-9-20,80,68,58,68,63,57,99,84,56,29.85,29.69,7,1,10,0.00
2013-9-21,67,65,62,66,63,59,99,96,88,29.69,29.45,11,-50,13,0.85
2013-9-22,77,64,53,64,57,52,98,82,59,29.65,29.51,6,1,10,0.00
2013-9-23,74,63,55,62,58,54,97,84,59,29.80,29.65,6,1,9,0.00
2013-9-24,66,62,55,62,60,55,98,91,83,29.81,29.68,2,0,3,0.00
2013-9-25,63,61,59,62,61,59,99,98,94,29.68,29.60,4,1,6,1.62
2013-9-26,75,64,57,67,61,56,99,91,70,29.78,29.64,6,1,10,0.00
2013-9-27,74,63,51,63,58,51,99,85,58,29.91,29.77,4,0,7,0.00
2013-9-28,71,62,53,60,56,52,97,83,62,29.99,29.89,4,1,8,0.00
2013-9-29,69,60,49,60,55,49,98,85,64,29.93,29.81,5,1,10,0.00
2013-9-30,71,60,51,61,56,50,99,87,57,29.87,29.77,8,1,10,0.00
2013-10-1,75,62,51,64,58,50,99,88,62,29.94,29.82,5,1,11,0.00
2013-10-2,78,65,54,66,60,54,99,86,54,29.93,29.83,7,0,9,0.00
2013-10-3,78,66,58,66,61,58,99,86,55,29.91,29.83,6,1,10,0.00
2013-10-4,80,66,55,69,61,54,99,86,59,29.93,29.85,4,0,7,0.00
2013-10-5,80,67,57,68,62,56,99,85,58,29.91,29.78,4,0,7,0.00
2013-10-6,78,67,59,68,63,58,99,89,64,29.80,29.62,7,1,10,1.06
2013-10-7,70,63,58,64,58,52,99,84,53,29.72,29.56,11,3,14,0.63
2013-10-8,69,60,55,56,54,51,97,81,59,29.91,29.72,9,2,10,0.00
2013-10-9,70,59,48,58,51,46,96,79,49,29.97,29.87,4,1,6,0.00
2013-10-10,73,61,47,59,52,46,98,76,49,29.91,29.77,10,3,16,0.00
2013-10-11,76,62,50,60,53,49,98,77,41,29.81,29.72,7,1,12,0.00
2013-10-12,76,70,60,59,57,55,86,65,52,29.85,29.77,7,3,0,0.00
2013-10-13,76,62,52,62,57,51,98,84,56,29.95,29.84,4,1,7,0.00
2013-10-14,72,64,57,63,60,56,98,88,68,29.97,29.87,4,1,7,0.00
2013-10-15,64,61,56,60,57,54,96,89,79,29.92,29.82,4,1,5,0.00
2013-10-16,67,63,57,61,59,56,98,88,73,29.83,29.73,4,-208,7,0.00
2013-10-17,66,62,56,65,61,55,99,97,93,29.74,29.63,5,-104,6,0.44
2013-10-18,68,56,46,58,53,46,99,89,62,29.77,29.68,4,0,6,0.01
2013-10-19,62,55,51,56,52,48,99,90,66,29.74,29.67,6,1,10,0.00
2013-10-20,64,50,37,48,41,31,97,75,30,29.86,29.73,6,-66,9,0.00
2013-10-21,66,52,40,56,48,39,98,88,60,29.92,29.79,6,1,9,0.00
2013-10-22,69,58,52,56,51,45,99,80,45,29.80,29.60,8,2,12,0.00
2013-10-23,55,49,37,48,39,32,86,68,47,29.83,29.56,13,5,23,0.00
2013-10-24,60,46,35,42,37,32,90,72,47,29.96,29.83,8,2,16,0.00
2013-10-25,53,42,29,38,26,18,87,57,27,30.13,29.95,9,3,14,0.00
2013-10-26,55,41,27,37,32,26,96,71,44,30.12,29.92,9,2,13,0.00
2013-10-27,63,54,43,53,46,32,94,74,57,29.92,29.84,7,3,13,0.00
2013-10-28,62,56,50,56,53,49,99,90,74,30.04,29.89,6,2,9,0.21
2013-10-29,67,55,46,58,51,45,99,90,66,30.11,30.01,6,0,6,0.00
2013-10-30,74,61,53,60,56,52,99,86,56,30.07,29.92,10,2,12,0.00
2013-10-31,69,61,54,62,58,53,98,90,77,29.94,29.63,11,1,14,0.02
2013-11-1,71,63,56,63,54,44,99,75,41,29.62,29.44,13,4,22,0.43
2013-11-2,65,54,46,47,42,36,87,63,39,29.80,29.54,14,4,23,0.02
2013-11-3,60,48,36,41,37,33,96,70,38,30.09,29.80,9,1,12,0.01
2013-11-4,56,47,41,39,36,34,86,66,47,30.24,30.09,6,2,10,0.00
2013-11-5,61,49,40,41,34,30,78,59,33,30.27,30.13,6,2,9,0.00
2013-11-6,67,57,48,56,52,41,94,83,66,30.13,29.88,4,1,9,0.00
2013-11-7,61,54,43,57,46,31,97,76,44,29.95,29.79,12,4,18,0.09
2013-11-8,58,45,34,31,24,12,82,48,18,30.10,29.93,9,2,13,0.00
2013-11-9,56,45,32,37,31,26,87,60,34,30.15,30.01,6,1,9,0.00
2013-11-10,68,56,41,37,31,25,75,43,22,30.03,29.93,11,3,18,0.00
2013-11-11,42,41,39,35,33,32,80,74,68,29.99,29.95,0,0,2,0.00
2013-11-12,58,44,28,40,28,12,80,55,36,30.21,29.88,16,6,23,0.00
2013-11-13,48,31,20,20,14,7,79,52,21,30.35,30.21,11,1,14,0.00
2013-11-14,55,38,24,27,18,12,80,48,19,30.27,30.11,6,1,10,0.00
2013-11-15,49,43,30,48,37,19,98,81,50,30.11,29.95,2,0,4,0.45
2013-11-16,55,52,49,54,52,48,99,98,96,30.00,29.92,3,1,6,0.02
2013-11-17,59,57,55,58,56,54,100,97,94,29.95,29.69,3,1,6,1.27
2013-11-18,65,59,48,62,42,30,100,58,29,29.78,29.64,13,6,23,0.06
2013-11-19,56,47,37,34,30,25,73,52,33,29.96,29.76,13,2,17,0.00
2013-11-20,52,44,38,32,29,25,66,54,42,30.13,29.96,8,4,13,0.00
2013-11-21,50,48,45,50,43,32,98,84,58,30.19,30.09,7,2,9,0.07
2013-11-22,57,53,50,57,53,49,99,99,98,30.14,29.91,4,1,9,0.09
2013-11-23,57,50,36,56,43,25,99,78,53,30.00,29.86,13,5,23,0.00
2013-11-24,45,34,26,25,15,8,70,47,25,30.26,29.98,11,2,13,0.01
2013-11-25,41,33,26,31,14,6,94,46,26,30.28,30.03,5,2,13,0.13
2013-11-26,48,42,32,47,42,31,99,98,94,30.03,29.39,10,2,15,4.17
2013-11-27,44,33,23,42,27,17,93,78,64,30.02,29.36,17,8,23,0.03
2013-11-28,48,31,19,24,20,16,89,66,33,30.26,30.02,6,1,8,0.00
2013-11-29,60,42,25,30,24,16,90,52,29,30.29,30.18,6,1,10,0.00
2013-11-30,48,39,32,27,25,22,70,57,37,30.35,30.13,7,2,10,0.00
2013-12-1,56,43,33,38,32,25,82,66,38,30.13,29.78,7,2,10,0.00
2013-12-2,48,45,40,47,42,34,98,91,64,29.78,29.60,6,1,7,0.03
2013-12-3,50,49,47,50,48,46,99,99,98,29.70,29.62,3,0,5,0.11
2013-12-4,58,54,50,58,54,50,100,100,99,29.81,29.69,2,0,3,0.18
2013-12-5,66,62,57,66,62,57,100,100,100,29.84,29.73,15,3,20,0.87
2013-12-6,70,65,58,66,64,57,100,96,85,29.79,29.69,13,8,21,1.36
2013-12-7,63,53,43,57,50,42,99,89,68,30.07,29.75,7,2,9,0.02
2013-12-8,47,41,38,44,40,38,99,97,89,30.09,29.98,6,3,10,0.69
2013-12-9,49,44,38,49,44,37,100,99,99,30.01,29.78,6,1,9,1.53
2013-12-10,50,42,27,49,37,19,100,81,53,30.11,29.70,17,5,26,0.24
2013-12-11,51,37,23,29,21,14,91,57,28,30.24,30.10,6,1,9,0.00
2013-12-12,46,37,28,21,10,-2,62,35,14,30.19,30.08,12,3,17,0.00
2013-12-13,49,38,25,29,18,11,75,47,27,30.15,29.97,4,0,6,0.00
2013-12-14,47,44,39,46,38,23,99,84,48,29.98,29.58,6,1,12,1.23
2013-12-15,46,37,28,46,33,25,99,85,74,29.95,29.57,14,6,17,0.02
2013-12-16,54,40,27,32,28,24,93,65,31,30.00,29.91,10,3,20,0.00
2013-12-17,57,48,37,36,32,25,72,53,38,29.96,29.81,16,7,24,0.00
2013-12-18,52,40,31,25,12,0,55,34,14,30.08,29.90,15,4,20,0.00
2013-12-19,60,44,31,26,17,6,57,35,13,30.11,29.98,7,1,11,0.00
2013-12-20,57,48,36,47,37,26,81,65,48,30.02,29.90,6,0,10,0.00
2013-12-21,62,57,52,61,55,46,99,94,80,29.90,29.71,7,1,10,0.24
2013-12-22,63,58,55,63,58,54,100,99,97,29.83,29.66,9,2,12,4.36
2013-12-23,55,48,36,55,44,29,100,89,73,29.97,29.77,11,4,15,0.02
2013-12-24,37,31,24,29,22,15,84,68,46,30.18,29.96,13,4,20,0.00
2013-12-25,39,29,20,24,19,17,90,68,42,30.29,30.14,5,1,9,0.00
2013-12-26,52,37,24,30,23,17,88,60,28,30.16,30.04,7,1,11,0.00
2013-12-27,50,38,27,26,23,18,86,59,33,30.25,30.10,5,1,7,0.00
2013-12-28,44,36,28,40,31,24,97,83,56,30.19,29.78,9,2,13,0.58
2013-12-29,53,45,39,47,41,36,99,87,70,29.79,29.62,12,4,19,0.35
2013-12-30,49,44,41,41,38,35,86,78,70,29.94,29.75,11,4,14,0.00
2013-12-31,45,38,31,36,24,13,82,60,31,30.14,29.91,15,3,20,0.00
2014-1-1,47,38,28,34,27,21,85,67,48,30.16,29.92,4,0,6,0.00
2014-1-2,47,37,21,45,33,13,98,86,68,29.91,29.51,18,5,27,0.32